createdAt,value
2023-03-02T00:01:00.921Z,3.20
2023-03-02T00:03:29.107Z,3.23
2023-03-02T00:05:57.907Z,3.03
2023-03-02T00:08:26.084Z,3.07
2023-03-02T00:10:54.870Z,2.73
2023-03-02T00:13:23.232Z,3.20
2023-03-02T00:15:52.677Z,3.33
2023-03-02T00:18:20.825Z,2.53
2023-03-02T00:20:48.928Z,1.83
2023-03-02T00:23:17.317Z,2.23
2023-03-02T00:25:45.270Z,3.07
2023-03-02T00:28:13.357Z,2.80
2023-03-02T00:30:41.416Z,2.10
2023-03-02T00:33:10.714Z,2.00
2023-03-02T00:35:39.768Z,2.27
2023-03-02T00:38:08.320Z,2.20
2023-03-02T00:40:36.597Z,2.00
2023-03-02T00:43:05.031Z,1.30
2023-03-02T00:45:33.044Z,1.60
2023-03-02T00:48:01.118Z,1.80
2023-03-02T00:50:30.653Z,2.23
2023-03-02T00:52:58.674Z,2.10
2023-03-02T00:55:26.646Z,2.40
2023-03-02T00:57:55.858Z,1.83
2023-03-02T01:00:24.367Z,2.40
2023-03-02T01:02:52.530Z,2.10
2023-03-02T01:05:20.694Z,1.87
2023-03-02T01:07:50.107Z,2.13
2023-03-02T01:10:18.179Z,1.80
2023-03-02T01:12:46.250Z,2.00
2023-03-02T01:15:14.483Z,2.43
2023-03-02T01:17:43.896Z,2.37
2023-03-02T01:20:12.887Z,1.80
2023-03-02T01:22:40.866Z,2.60
2023-03-02T01:25:10.944Z,5.17
2023-03-02T01:27:39.066Z,4.87
2023-03-02T01:30:08.315Z,3.73
2023-03-02T01:32:36.320Z,2.57
2023-03-02T01:35:04.609Z,4.10
2023-03-02T01:37:32.670Z,2.73
2023-03-02T01:40:02.693Z,2.70
2023-03-02T01:42:38.630Z,3.47
2023-03-02T01:45:27.907Z,2.60
2023-03-02T01:47:55.892Z,3.40
2023-03-02T01:50:27.136Z,2.80
2023-03-02T01:52:56.464Z,3.60
2023-03-02T01:55:29.187Z,2.43
2023-03-02T01:58:00.395Z,2.83
2023-03-02T02:00:30.903Z,2.87
2023-03-02T02:03:09.075Z,2.93
2023-03-02T02:05:39.391Z,2.43
2023-03-02T02:08:08.418Z,3.57
2023-03-02T02:10:37.162Z,3.10
2023-03-02T02:13:07.581Z,4.03
2023-03-02T02:15:36.021Z,3.10
2023-03-02T02:18:03.982Z,3.30
2023-03-02T02:20:37.269Z,2.60
2023-03-02T02:23:20.509Z,2.73
2023-03-02T02:26:18.571Z,2.47
2023-03-02T02:28:52.722Z,1.57
2023-03-02T02:31:23.713Z,3.23
2023-03-02T02:33:56.546Z,2.73
2023-03-02T02:36:33.673Z,3.27
2023-03-02T02:39:05.468Z,2.50
2023-03-02T02:41:40.301Z,2.30
2023-03-02T02:44:10.791Z,3.67
2023-03-02T02:46:38.751Z,2.70
2023-03-02T02:49:14.595Z,2.10
2023-03-02T02:51:42.880Z,2.00
2023-03-02T02:54:18.531Z,3.30
2023-03-02T02:56:49.832Z,1.67
2023-03-02T02:59:22.003Z,1.90
2023-03-02T03:01:50.480Z,2.43
2023-03-02T03:04:21.250Z,2.03
2023-03-02T03:06:54.617Z,2.77
2023-03-02T03:09:23.753Z,2.57
2023-03-02T03:11:54.268Z,1.97
2023-03-02T03:14:27.873Z,2.47
2023-03-02T03:16:56.289Z,2.07
2023-03-02T03:19:26.567Z,3.50
2023-03-02T03:21:57.124Z,3.00
2023-03-02T03:24:26.318Z,3.30
2023-03-02T03:26:56.638Z,3.40
2023-03-02T03:29:26.745Z,3.40
2023-03-02T03:31:56.720Z,3.07
2023-03-02T03:34:25.867Z,1.93
2023-03-02T03:36:54.413Z,2.37
2023-03-02T03:39:22.560Z,3.50
2023-03-02T03:41:50.514Z,3.47
2023-03-02T03:44:19.893Z,3.37
2023-03-02T03:46:47.906Z,3.70
2023-03-02T03:49:16.035Z,3.30
2023-03-02T03:51:44.355Z,3.07
2023-03-02T03:54:12.374Z,2.53
2023-03-02T03:56:42.669Z,3.07
2023-03-02T03:59:12.483Z,4.07
2023-03-02T04:01:43.806Z,3.37
2023-03-02T04:04:14.150Z,2.53
2023-03-02T04:06:42.643Z,2.43
2023-03-02T04:09:12.331Z,2.67
2023-03-02T04:11:42.653Z,2.07
2023-03-02T04:14:11.734Z,1.43
2023-03-02T04:16:41.770Z,2.27
2023-03-02T04:19:10.402Z,1.53
2023-03-02T04:21:39.206Z,1.70
2023-03-02T04:24:08.123Z,2.30
2023-03-02T04:26:37.293Z,1.63
2023-03-02T04:29:06.263Z,1.50
2023-03-02T04:31:34.742Z,2.50
2023-03-02T04:34:05.072Z,1.93
2023-03-02T04:36:34.249Z,2.23
2023-03-02T04:39:02.429Z,1.60
2023-03-02T04:41:30.466Z,1.80
2023-03-02T04:43:58.477Z,2.03
2023-03-02T04:46:28.602Z,3.17
2023-03-02T04:48:57.042Z,1.83
2023-03-02T04:51:28.216Z,2.23
2023-03-02T04:53:57.903Z,1.50
2023-03-02T04:56:26.252Z,2.43
2023-03-02T04:58:54.244Z,1.40
2023-03-02T05:01:22.447Z,1.50
2023-03-02T05:03:50.955Z,2.33
2023-03-02T05:06:19.286Z,2.23
2023-03-02T05:08:48.961Z,2.07
2023-03-02T05:11:29.950Z,1.63
2023-03-02T05:14:00.272Z,1.63
2023-03-02T05:16:30.142Z,2.33
2023-03-02T05:18:59.330Z,2.73
2023-03-02T05:21:27.655Z,2.53
2023-03-02T05:23:57.172Z,2.77
2023-03-02T05:26:25.530Z,2.13
2023-03-02T05:28:54.148Z,2.00
2023-03-02T05:31:25.649Z,4.10
2023-03-02T05:33:53.875Z,2.73
2023-03-02T05:36:23.347Z,1.90
2023-03-02T05:38:51.806Z,2.53
2023-03-02T05:41:21.196Z,1.97
2023-03-02T05:43:50.153Z,2.73
2023-03-02T05:46:20.399Z,3.13
2023-03-02T05:48:49.682Z,2.87
2023-03-02T05:51:18.771Z,3.73
2023-03-02T05:53:46.924Z,2.60
2023-03-02T05:56:14.973Z,2.30
2023-03-02T05:58:44.414Z,1.83
2023-03-02T06:01:15.466Z,3.70
2023-03-02T06:03:43.929Z,3.03
2023-03-02T06:06:14.172Z,2.27
2023-03-02T06:08:42.804Z,3.00
2023-03-02T06:11:11.636Z,3.20
2023-03-02T06:13:40.332Z,2.73
2023-03-02T06:16:10.721Z,3.70
2023-03-02T06:18:41.355Z,2.83
2023-03-02T06:21:09.744Z,2.73
2023-03-02T06:23:37.861Z,3.80
2023-03-02T06:26:09.582Z,3.37
2023-03-02T06:28:49.632Z,3.23
2023-03-02T06:31:21.272Z,3.43
2023-03-02T06:33:49.379Z,3.70
2023-03-02T06:36:18.240Z,3.20
2023-03-02T06:38:46.323Z,3.67
2023-03-02T06:41:14.385Z,3.23
2023-03-02T06:43:42.407Z,3.37
2023-03-02T06:46:10.649Z,4.10
2023-03-02T06:48:40.146Z,2.73
2023-03-02T06:51:09.864Z,3.43
2023-03-02T06:53:38.203Z,3.60
2023-03-02T06:56:07.285Z,2.93
2023-03-02T06:58:36.163Z,2.63
2023-03-02T07:01:04.511Z,3.57
2023-03-02T07:03:32.784Z,3.90
2023-03-02T07:06:02.126Z,3.80
2023-03-02T07:08:30.281Z,3.53
2023-03-02T07:10:58.279Z,3.67
2023-03-02T07:13:26.478Z,3.37
2023-03-02T07:15:55.046Z,4.47
2023-03-02T07:18:22.940Z,3.37
2023-03-02T07:20:50.926Z,2.73
2023-03-02T07:23:20.304Z,4.73
2023-03-02T07:25:48.253Z,3.47
2023-03-02T07:28:16.158Z,3.80
2023-03-02T07:30:44.274Z,4.40
2023-03-02T07:33:12.424Z,4.43
2023-03-02T07:35:40.411Z,5.80
2023-03-02T07:38:08.528Z,4.40
2023-03-02T07:40:41.849Z,5.07
2023-03-02T07:43:09.916Z,4.70
2023-03-02T07:45:38.813Z,4.63
2023-03-02T07:48:07.588Z,5.73
2023-03-02T07:50:35.885Z,5.03
2023-03-02T07:53:03.957Z,5.00
2023-03-02T07:55:31.808Z,6.07
2023-03-02T07:58:01.176Z,4.97
2023-03-02T08:00:30.637Z,6.10
2023-03-02T08:02:58.838Z,6.77
2023-03-02T08:05:27.061Z,7.97
2023-03-02T08:07:55.115Z,7.17
2023-03-02T08:10:23.184Z,7.20
2023-03-02T08:12:51.140Z,8.83
2023-03-02T08:15:20.544Z,8.97
2023-03-02T08:17:48.512Z,7.33
2023-03-02T08:20:16.541Z,9.53
2023-03-02T08:22:44.645Z,9.40
2023-03-02T08:25:12.728Z,10.23
2023-03-02T08:27:41.460Z,9.80
2023-03-02T08:30:10.883Z,9.37
2023-03-02T08:32:40.844Z,10.27
2023-03-02T08:35:10.084Z,11.57
2023-03-02T08:37:38.090Z,11.37
2023-03-02T08:40:07.019Z,11.77
2023-03-02T08:42:35.187Z,10.07
2023-03-02T08:45:03.344Z,9.10
2023-03-02T08:47:32.708Z,9.70
2023-03-02T08:50:02.302Z,9.23
2023-03-02T08:52:30.315Z,10.30
2023-03-02T08:54:58.373Z,11.77
2023-03-02T08:57:26.331Z,11.23
2023-03-02T08:59:54.454Z,9.70
2023-03-02T09:02:22.461Z,11.00
2023-03-02T09:04:50.558Z,10.27
2023-03-02T09:07:20.122Z,10.90
2023-03-02T09:09:48.434Z,9.57
2023-03-02T09:12:21.011Z,10.13
2023-03-02T09:14:49.369Z,12.17
2023-03-02T09:17:17.482Z,10.17
2023-03-02T09:19:51.051Z,9.50
2023-03-02T09:22:20.971Z,10.17
2023-03-02T09:24:48.983Z,9.83
2023-03-02T09:27:17.225Z,10.13
2023-03-02T09:29:45.300Z,9.77
2023-03-02T09:32:14.168Z,9.63
2023-03-02T09:34:42.396Z,11.53
2023-03-02T09:37:11.573Z,10.93
2023-03-02T09:39:41.310Z,10.93
2023-03-02T09:42:43.126Z,9.93
2023-03-02T09:45:22.734Z,9.93
2023-03-02T09:48:03.810Z,10.67
2023-03-02T09:50:34.590Z,10.70
2023-03-02T09:53:25.861Z,10.57
2023-03-02T09:56:00.250Z,9.90
2023-03-02T09:58:32.681Z,11.50
2023-03-02T10:01:04.214Z,12.13
2023-03-02T10:03:39.797Z,9.30
2023-03-02T10:06:08.130Z,10.30
2023-03-02T10:08:40.825Z,10.40
2023-03-02T10:11:17.723Z,9.77
2023-03-02T10:13:49.566Z,10.40
2023-03-02T10:16:27.329Z,9.40
2023-03-02T10:19:05.446Z,9.37
2023-03-02T10:21:39.229Z,10.10
2023-03-02T10:24:17.321Z,9.17
2023-03-02T10:26:48.644Z,9.57
2023-03-02T10:29:36.018Z,10.07
2023-03-02T10:32:14.075Z,9.87
2023-03-02T10:34:42.354Z,10.27
2023-03-02T10:37:15.168Z,10.13
2023-03-02T10:39:43.708Z,12.37
2023-03-02T10:42:19.134Z,11.77
2023-03-02T10:44:49.926Z,9.47
2023-03-02T10:47:24.396Z,10.10
2023-03-02T10:49:53.665Z,8.77
2023-03-02T10:52:23.571Z,9.00
2023-03-02T10:55:02.141Z,9.53
2023-03-02T10:57:36.928Z,9.63
2023-03-02T11:00:15.665Z,9.50
2023-03-02T11:02:51.431Z,9.77
2023-03-02T11:05:34.218Z,11.50
2023-03-02T11:08:03.870Z,10.00
2023-03-02T11:10:35.706Z,9.70
2023-03-02T11:13:18.606Z,9.47
2023-03-02T11:15:50.170Z,10.43
2023-03-02T11:18:26.031Z,10.87
2023-03-02T11:20:57.230Z,9.03
2023-03-02T11:23:34.525Z,10.93
2023-03-02T11:26:09.088Z,9.87
2023-03-02T11:28:47.839Z,9.50
2023-03-02T11:31:23.654Z,9.13
2023-03-02T11:34:11.637Z,8.90
2023-03-02T11:36:51.995Z,10.27
2023-03-02T11:39:26.235Z,9.30
2023-03-02T11:41:54.430Z,9.43
2023-03-02T11:44:27.463Z,9.27
2023-03-02T11:47:00.584Z,10.43
2023-03-02T11:49:38.075Z,10.57
2023-03-02T11:52:06.226Z,11.20
2023-03-02T11:54:40.344Z,10.57
2023-03-02T11:57:20.870Z,10.57
2023-03-02T11:59:51.733Z,9.77
2023-03-02T12:02:20.287Z,9.80
2023-03-02T12:04:49.296Z,11.30
2023-03-02T12:07:20.488Z,9.20
2023-03-02T12:09:59.745Z,10.03
2023-03-02T12:12:41.957Z,11.17
2023-03-02T12:15:31.087Z,9.80
2023-03-02T12:17:59.152Z,10.77
2023-03-02T12:20:31.036Z,11.83
2023-03-02T12:23:10.356Z,10.80
2023-03-02T12:25:49.565Z,10.37
2023-03-02T12:28:29.807Z,10.60
2023-03-02T12:31:05.402Z,10.00
2023-03-02T12:33:33.464Z,10.43
2023-03-02T12:36:11.415Z,11.77
2023-03-02T12:38:42.367Z,10.70
2023-03-02T12:41:23.349Z,10.63
2023-03-02T12:44:02.908Z,10.90
2023-03-02T12:46:34.735Z,9.80
2023-03-02T12:49:14.469Z,9.10
2023-03-02T12:51:50.282Z,9.80
2023-03-02T12:54:20.335Z,9.30
2023-03-02T12:56:49.139Z,10.27
2023-03-02T12:59:25.715Z,10.87
2023-03-02T13:02:06.562Z,10.33
2023-03-02T13:04:34.561Z,10.70
2023-03-02T13:07:02.565Z,9.43
2023-03-02T13:09:30.555Z,10.77
2023-03-02T13:11:59.394Z,11.17
2023-03-02T13:14:28.918Z,10.67
2023-03-02T13:17:02.869Z,11.03
2023-03-02T13:19:32.129Z,9.27
2023-03-02T13:22:01.556Z,11.20
2023-03-02T13:24:37.749Z,9.50
2023-03-02T13:27:07.713Z,10.23
2023-03-02T13:29:36.180Z,10.03
2023-03-02T13:32:27.751Z,10.73
2023-03-02T13:34:58.207Z,12.37
2023-03-02T13:37:37.664Z,11.30
2023-03-02T13:40:08.437Z,11.57
2023-03-02T13:42:38.147Z,12.27
2023-03-02T13:45:27.142Z,11.73
2023-03-02T13:47:58.938Z,9.17
2023-03-02T13:50:29.402Z,10.17
2023-03-02T13:52:59.635Z,9.43
2023-03-02T13:55:27.732Z,9.07
2023-03-02T13:57:57.026Z,9.53
2023-03-02T14:00:30.113Z,11.00
2023-03-02T14:02:59.447Z,8.50
2023-03-02T14:05:33.245Z,9.40
2023-03-02T14:08:02.997Z,9.87
2023-03-02T14:10:31.266Z,9.10
2023-03-02T14:13:05.242Z,8.57
2023-03-02T14:15:33.512Z,9.67
2023-03-02T14:18:02.952Z,8.90
2023-03-02T14:20:31.073Z,8.90
2023-03-02T14:23:03.406Z,9.37
2023-03-02T14:25:31.424Z,8.00
2023-03-02T14:27:59.349Z,9.27
2023-03-02T14:30:27.320Z,7.97
2023-03-02T14:32:55.206Z,7.37
2023-03-02T14:35:26.493Z,7.70
2023-03-02T14:37:54.503Z,6.83
2023-03-02T14:40:25.805Z,8.07
2023-03-02T14:42:53.800Z,7.43
2023-03-02T14:45:23.099Z,8.53
2023-03-02T14:47:51.104Z,8.03
2023-03-02T14:50:19.313Z,6.70
2023-03-02T14:52:52.465Z,6.97
2023-03-02T14:55:26.126Z,6.63
2023-03-02T14:57:58.054Z,6.43
2023-03-02T15:00:27.064Z,6.80
2023-03-02T15:02:55.621Z,6.40
2023-03-02T15:05:23.764Z,6.40
2023-03-02T15:07:53.839Z,6.57
2023-03-02T15:10:23.160Z,6.17
2023-03-02T15:12:51.582Z,6.60
2023-03-02T15:15:20.043Z,7.27
2023-03-02T15:17:48.039Z,7.53
2023-03-02T15:20:17.199Z,7.23
2023-03-02T15:22:45.540Z,6.77
2023-03-02T15:25:14.942Z,7.27
2023-03-02T15:27:42.906Z,6.50
2023-03-02T15:30:12.413Z,6.60
2023-03-02T15:32:40.510Z,6.83
2023-03-02T15:35:09.769Z,6.60
2023-03-02T15:37:37.795Z,6.83
2023-03-02T15:40:07.068Z,5.07
2023-03-02T15:42:37.172Z,7.40
2023-03-02T15:45:05.850Z,6.47
2023-03-02T15:47:34.591Z,6.13
2023-03-02T15:50:02.613Z,5.80
2023-03-02T15:52:30.560Z,6.57
2023-03-02T15:54:58.536Z,6.37
2023-03-02T15:57:26.533Z,7.13
2023-03-02T15:59:56.089Z,5.63
2023-03-02T16:02:24.168Z,5.67
2023-03-02T16:04:52.226Z,5.77
2023-03-02T16:07:20.089Z,4.87
2023-03-02T16:09:48.466Z,5.50
2023-03-02T16:12:16.481Z,6.10
2023-03-02T16:14:44.427Z,5.20
2023-03-02T16:17:13.760Z,7.30
2023-03-02T16:19:42.073Z,6.90
2023-03-02T16:22:10.088Z,5.60
2023-03-02T16:24:38.744Z,5.03
2023-03-02T16:27:07.746Z,5.63
2023-03-02T16:29:35.843Z,6.83
2023-03-02T16:32:04.177Z,6.07
2023-03-02T16:34:33.561Z,6.30
2023-03-02T16:37:01.510Z,6.10
2023-03-02T16:39:29.572Z,5.67
2023-03-02T16:41:57.541Z,6.60
2023-03-02T16:44:25.729Z,5.63
2023-03-02T16:46:55.769Z,5.73
2023-03-02T16:49:25.080Z,6.33
2023-03-02T16:51:57.941Z,5.70
2023-03-02T16:54:26.339Z,5.53
2023-03-02T16:56:54.321Z,6.63
2023-03-02T16:59:22.567Z,5.90
2023-03-02T17:01:50.651Z,6.83
2023-03-02T17:04:21.269Z,6.53
2023-03-02T17:07:00.553Z,6.47
2023-03-02T17:09:31.219Z,6.60
2023-03-02T17:11:59.263Z,7.20
2023-03-02T17:14:27.510Z,6.20
2023-03-02T17:16:56.370Z,6.23
2023-03-02T17:19:26.768Z,7.07
2023-03-02T17:21:56.982Z,6.77
2023-03-02T17:24:24.936Z,5.83
2023-03-02T17:26:54.344Z,6.33
2023-03-02T17:29:23.174Z,6.73
2023-03-02T17:31:51.358Z,6.67
2023-03-02T17:34:19.621Z,6.60
2023-03-02T17:36:47.582Z,6.83
2023-03-02T17:39:15.921Z,9.70
2023-03-02T17:41:43.821Z,7.70
2023-03-02T17:44:13.105Z,6.43
2023-03-02T17:46:45.472Z,7.27
2023-03-02T17:49:14.063Z,6.87
2023-03-02T17:51:42.117Z,7.60
2023-03-02T17:54:10.038Z,6.90
2023-03-02T17:56:38.249Z,8.00
2023-03-02T17:59:06.936Z,5.87
2023-03-02T18:01:36.480Z,8.13
2023-03-02T18:04:04.995Z,6.33
2023-03-02T18:06:33.866Z,6.27
2023-03-02T18:09:01.970Z,6.77
2023-03-02T18:11:29.893Z,7.43
2023-03-02T18:13:58.678Z,7.67
2023-03-02T18:16:29.207Z,8.10
2023-03-02T18:18:58.899Z,6.77
2023-03-02T18:21:26.881Z,6.83
2023-03-02T18:23:55.029Z,7.40
2023-03-02T18:26:23.251Z,6.40
2023-03-02T18:28:51.275Z,7.07
2023-03-02T18:31:20.215Z,5.73
2023-03-02T18:33:48.512Z,6.60
2023-03-02T18:36:17.817Z,7.00
2023-03-02T18:38:45.877Z,8.70
2023-03-02T18:41:14.502Z,7.10
2023-03-02T18:43:43.327Z,7.77
2023-03-02T18:46:19.280Z,6.37
2023-03-02T18:48:47.608Z,7.77
2023-03-02T18:51:17.351Z,6.43
2023-03-02T18:53:45.734Z,7.13
2023-03-02T18:56:14.237Z,7.23
2023-03-02T18:58:42.813Z,7.17
2023-03-02T19:01:11.282Z,6.30
2023-03-02T19:03:40.103Z,7.30
2023-03-02T19:06:09.118Z,6.80
2023-03-02T19:08:38.582Z,7.70
2023-03-02T19:11:07.222Z,5.67
2023-03-02T19:13:35.236Z,6.20
2023-03-02T19:16:03.466Z,7.00
2023-03-02T19:18:32.070Z,7.60
2023-03-02T19:21:01.201Z,7.87
2023-03-02T19:23:29.625Z,5.83
2023-03-02T19:25:59.342Z,6.13
2023-03-02T19:28:27.503Z,5.23
2023-03-02T19:30:55.676Z,6.17
2023-03-02T19:33:24.845Z,6.30
2023-03-02T19:35:55.835Z,5.53
2023-03-02T19:38:23.945Z,5.37
2023-03-02T19:40:52.066Z,4.30
2023-03-02T19:43:21.551Z,4.40
2023-03-02T19:45:49.922Z,5.50
2023-03-02T19:48:18.266Z,5.93
2023-03-02T19:50:46.569Z,5.70
2023-03-02T19:53:14.887Z,5.73
2023-03-02T19:55:43.627Z,5.60
2023-03-02T19:58:17.341Z,5.67
2023-03-02T20:00:47.866Z,4.77
2023-03-02T20:03:15.862Z,6.70
2023-03-02T20:05:43.865Z,5.63
2023-03-02T20:08:11.894Z,5.87
2023-03-02T20:10:42.391Z,4.87
2023-03-02T20:13:10.732Z,4.97
2023-03-02T20:15:40.871Z,5.03
2023-03-02T20:18:14.787Z,5.30
2023-03-02T20:20:47.255Z,5.30
2023-03-02T20:23:16.121Z,4.50
2023-03-02T20:25:46.212Z,4.30
2023-03-02T20:28:19.014Z,5.57
2023-03-02T20:30:55.327Z,5.97
2023-03-02T20:33:27.866Z,5.10
2023-03-02T20:35:56.862Z,5.20
2023-03-02T20:38:29.384Z,4.90
2023-03-02T20:40:58.260Z,6.03
2023-03-02T20:43:26.906Z,5.27
2023-03-02T20:45:54.917Z,5.13
2023-03-02T20:48:24.594Z,5.40
2023-03-02T20:50:53.089Z,4.40
2023-03-02T20:53:21.856Z,4.77
2023-03-02T20:55:49.934Z,4.07
2023-03-02T20:58:18.241Z,4.33
2023-03-02T21:00:46.466Z,4.57
2023-03-02T21:03:14.729Z,5.60
2023-03-02T21:05:44.736Z,4.73
2023-03-02T21:08:14.889Z,4.27
2023-03-02T21:10:44.757Z,4.63
2023-03-02T21:13:13.295Z,4.47
2023-03-02T21:15:41.956Z,4.03
2023-03-02T21:18:11.208Z,5.43
2023-03-02T21:20:39.813Z,3.90
2023-03-02T21:23:10.337Z,5.13
2023-03-02T21:25:40.494Z,4.20
2023-03-02T21:28:10.059Z,4.30
2023-03-02T21:30:38.205Z,4.20
2023-03-02T21:33:06.485Z,3.93
2023-03-02T21:35:34.372Z,4.43
2023-03-02T21:38:05.195Z,3.53
2023-03-02T21:40:37.666Z,4.47
2023-03-02T21:43:06.900Z,3.27
2023-03-02T21:45:35.096Z,3.23
2023-03-02T21:48:03.519Z,3.63
2023-03-02T21:50:35.644Z,3.13
2023-03-02T21:53:03.946Z,3.77
2023-03-02T21:55:34.252Z,4.57
2023-03-02T21:58:02.704Z,4.23
2023-03-02T22:00:33.715Z,3.17
2023-03-02T22:03:02.670Z,3.90
2023-03-02T22:05:31.066Z,5.10
2023-03-02T22:07:59.419Z,4.47
2023-03-02T22:10:31.983Z,3.60
2023-03-02T22:13:15.623Z,5.13
2023-03-02T22:15:44.115Z,4.77
2023-03-02T22:18:13.819Z,4.10
2023-03-02T22:20:43.970Z,4.90
2023-03-02T22:23:13.762Z,3.73
2023-03-02T22:25:43.535Z,4.97
2023-03-02T22:28:22.077Z,5.13
2023-03-02T22:30:51.315Z,4.40
2023-03-02T22:33:21.248Z,3.80
2023-03-02T22:35:50.257Z,3.93
2023-03-02T22:38:24.570Z,4.17
2023-03-02T22:40:53.082Z,4.13
2023-03-02T22:43:26.106Z,4.40
2023-03-02T22:45:54.424Z,4.97
2023-03-02T22:48:25.638Z,3.70
2023-03-02T22:50:53.627Z,5.07
2023-03-02T22:53:26.509Z,4.20
2023-03-02T22:56:00.678Z,4.60
2023-03-02T22:58:33.402Z,5.13
2023-03-02T23:01:02.869Z,4.53
2023-03-02T23:03:38.941Z,4.00
2023-03-02T23:06:23.111Z,4.77
2023-03-02T23:08:51.405Z,5.40
2023-03-02T23:11:21.371Z,4.57
2023-03-02T23:13:52.277Z,3.57
2023-03-02T23:16:22.596Z,4.13
2023-03-02T23:18:51.584Z,3.87
2023-03-02T23:21:22.228Z,4.27
2023-03-02T23:23:51.161Z,3.27
2023-03-02T23:26:20.429Z,4.77
2023-03-02T23:28:51.228Z,4.03
2023-03-02T23:31:19.426Z,4.77
2023-03-02T23:33:47.963Z,4.13
2023-03-02T23:36:16.245Z,3.67
2023-03-02T23:38:44.229Z,4.37
2023-03-02T23:41:12.244Z,5.50
2023-03-02T23:43:40.098Z,4.67
2023-03-02T23:46:14.039Z,3.80
2023-03-02T23:48:43.205Z,3.60
2023-03-02T23:51:11.838Z,5.50
2023-03-02T23:53:40.075Z,4.43
2023-03-02T23:56:08.522Z,4.13
2023-03-02T23:58:36.700Z,3.83
